Terminal Aerodrome Forecast
Issued by NWS

Home | Current Version | Previous Version | Text Only | Print | Product List | Glossary On
Versions: 1 2 3 4 5 6 7 8 9 10 11 12 13 14 15 16 17
000
FTUS42 KMHX 260224 AAA
TAFOAJ
TAF AMD
KOAJ 260224Z 2602/2624 04004KT P6SM BKN050
      TEMPO 2602/2606 BKN025
     FM260600 VRB04KT P6SM FEW025 FEW250
     FM261300 09005KT P6SM SCT045
      AMD LTD TO CLD VIS AND WIND=

USA.gov is the U.S. government's official web portal to all federal, state and local government web resources and services.